aviador You're here:

CYYU Decoded Metar

KAPUSKASING in ON, CANADA
Report Time2017-11-23 22:00:00
UTC Time2017-11-23 22:12:45
Flight Rules vfr VFR
Wind330° at 06 kt
W.Decomp.*RWY 35: 5.9 kt HW 1 kt LCW
RWY 28: 3.0 kt HW 5.2 kt RCW
W.Rank330° ranks 2
Current wind is below 330° avg. (8.4)
Visibility9999 m
Phenomena:Light Snow
Clouds:Few 020 Hf
Broken 034 Hf
Expected CloudBase > 1,200 ft AGL from Temp-Dew spread
Ceiling3,400 ft
Temp-9°C (ISA -23)
Dew Point-12°C (79% RH)
AAT-14.4°C
QNH1008 hPa
Density Alt-1,850 ft
Elevation745 ft
Report Wrong Elevation
Raw Report
CYYU 232200Z 33006KT 10SM -SN FEW020 BKN034 M09/M12 A2976 RMK
SC2SC5 SLP097=

Extra information for CYYU:More info

Metar Taf Metar & Taf Last 4 Metars F.Rules Stats Wind Profile Meteogram Temp Stats Airport Information Weather charts Add Link Nearby VenuesMetar ALERT Operation Metar Decoded Social comments